createdAt,value
2023-11-10T00:00:28.825Z,2.38
2023-11-10T00:02:56.283Z,2.22
2023-11-10T00:05:24.089Z,1.90
2023-11-10T00:07:51.477Z,2.30
2023-11-10T00:10:18.932Z,2.20
2023-11-10T00:12:46.236Z,2.22
2023-11-10T00:15:13.640Z,2.38
2023-11-10T00:17:41.478Z,2.30
2023-11-10T00:20:09.542Z,2.15
2023-11-10T00:22:37.056Z,2.40
2023-11-10T00:25:04.790Z,2.50
2023-11-10T00:27:33.744Z,2.28
2023-11-10T00:30:01.131Z,2.10
2023-11-10T00:32:28.432Z,2.10
2023-11-10T00:34:55.886Z,2.13
2023-11-10T00:37:24.068Z,2.30
2023-11-10T00:39:51.486Z,2.30
2023-11-10T00:42:18.854Z,2.00
2023-11-10T00:44:46.253Z,2.40
2023-11-10T00:47:13.851Z,2.10
2023-11-10T00:49:41.139Z,2.40
2023-11-10T00:52:09.002Z,2.10
2023-11-10T00:54:36.422Z,2.17
2023-11-10T00:57:04.125Z,2.08
2023-11-10T00:59:31.518Z,2.23
2023-11-10T01:01:58.817Z,2.10
2023-11-10T01:04:26.425Z,2.42
2023-11-10T01:06:53.921Z,2.50
2023-11-10T01:09:21.694Z,2.08
2023-11-10T01:11:49.470Z,1.90
2023-11-10T01:14:16.880Z,2.17
2023-11-10T01:16:44.282Z,2.20
2023-11-10T01:19:11.642Z,2.13
2023-11-10T01:21:38.959Z,2.65
2023-11-10T01:24:06.727Z,2.20
2023-11-10T01:26:34.811Z,2.50
2023-11-10T01:29:03.220Z,2.33
2023-11-10T01:31:30.577Z,2.33
2023-11-10T01:33:58.265Z,2.72
2023-11-10T01:36:25.696Z,2.60
2023-11-10T01:38:53.048Z,2.90
2023-11-10T01:41:21.827Z,2.97
2023-11-10T01:43:49.368Z,2.80
2023-11-10T01:46:38.048Z,2.95
2023-11-10T01:49:05.526Z,2.70
2023-11-10T01:51:33.153Z,3.10
2023-11-10T01:54:00.576Z,2.67
2023-11-10T01:56:27.886Z,2.70
2023-11-10T01:58:56.785Z,2.92
2023-11-10T02:01:24.135Z,2.80
2023-11-10T02:03:52.172Z,3.03
2023-11-10T02:06:19.588Z,3.17
2023-11-10T02:08:46.940Z,3.00
2023-11-10T02:11:14.572Z,3.10
2023-11-10T02:13:41.965Z,3.03
2023-11-10T02:16:09.275Z,2.88
2023-11-10T02:18:36.671Z,2.80
2023-11-10T02:21:04.215Z,2.97
2023-11-10T02:23:31.598Z,2.90
2023-11-10T02:25:58.947Z,2.97
2023-11-10T02:28:26.658Z,3.30
2023-11-10T02:30:54.069Z,3.05
2023-11-10T02:33:21.536Z,2.70
2023-11-10T02:35:49.053Z,3.00
2023-11-10T02:38:16.450Z,3.40
2023-11-10T02:40:43.799Z,3.10
2023-11-10T02:43:11.141Z,3.05
2023-11-10T02:45:39.011Z,3.67
2023-11-10T02:48:06.470Z,2.97
2023-11-10T02:50:33.786Z,3.43
2023-11-10T02:53:01.219Z,3.50
2023-11-10T02:55:29.396Z,3.60
2023-11-10T02:57:56.984Z,3.17
2023-11-10T03:00:24.286Z,3.25
2023-11-10T03:02:52.040Z,3.23
2023-11-10T03:05:19.351Z,3.00
2023-11-10T03:07:46.694Z,2.90
2023-11-10T03:10:13.995Z,3.20
2023-11-10T03:12:41.461Z,3.92
2023-11-10T03:15:09.011Z,2.97
2023-11-10T03:17:36.442Z,3.40
2023-11-10T03:20:04.487Z,3.60
2023-11-10T03:22:32.070Z,3.53
2023-11-10T03:24:59.671Z,3.33
2023-11-10T03:27:27.400Z,3.50
2023-11-10T03:29:54.712Z,3.60
2023-11-10T03:32:22.706Z,4.38
2023-11-10T03:34:50.035Z,3.45
2023-11-10T03:37:18.941Z,3.40
2023-11-10T03:39:46.515Z,3.40
2023-11-10T03:42:14.027Z,3.28
2023-11-10T03:44:41.338Z,3.22
2023-11-10T03:47:09.071Z,2.95
2023-11-10T03:49:36.409Z,3.20
2023-11-10T03:52:04.045Z,3.30
2023-11-10T03:54:32.197Z,3.60
2023-11-10T03:56:59.838Z,4.70
2023-11-10T03:59:27.141Z,3.55
2023-11-10T04:01:54.524Z,2.97
2023-11-10T04:04:21.986Z,2.80
2023-11-10T04:06:51.333Z,3.00
2023-11-10T04:09:19.111Z,2.95
2023-11-10T04:11:46.509Z,3.42
2023-11-10T04:14:13.908Z,4.00
2023-11-10T04:16:41.639Z,3.30
2023-11-10T04:19:09.828Z,3.88
2023-11-10T04:21:37.301Z,3.50
2023-11-10T04:24:05.133Z,3.05
2023-11-10T04:26:32.447Z,3.55
2023-11-10T04:29:00.747Z,3.90
2023-11-10T04:31:30.091Z,3.55
2023-11-10T04:33:57.563Z,3.88
2023-11-10T04:36:26.163Z,3.85
2023-11-10T04:38:53.554Z,3.72
2023-11-10T04:41:23.902Z,4.07
2023-11-10T04:43:51.789Z,3.72
2023-11-10T04:46:19.082Z,3.92
2023-11-10T04:48:46.584Z,3.70
2023-11-10T04:51:14.012Z,4.32
2023-11-10T04:53:41.948Z,3.93
2023-11-10T04:56:09.191Z,4.45
2023-11-10T04:58:36.699Z,4.30
2023-11-10T05:01:05.032Z,3.75
2023-11-10T05:03:32.910Z,3.78
2023-11-10T05:06:02.708Z,4.00
2023-11-10T05:08:30.055Z,3.40
2023-11-10T05:10:57.390Z,3.78
2023-11-10T05:13:24.776Z,3.80
2023-11-10T05:15:52.228Z,3.80
2023-11-10T05:20:52.021Z,3.28
2023-11-10T05:23:19.389Z,2.97
2023-11-10T05:25:46.998Z,3.90
2023-11-10T05:28:14.555Z,3.72
2023-11-10T05:30:41.983Z,5.13
2023-11-10T05:33:09.682Z,6.50
2023-11-10T05:35:37.296Z,4.15
2023-11-10T05:38:04.911Z,4.25
2023-11-10T05:40:32.278Z,5.47
2023-11-10T05:42:59.697Z,6.67
2023-11-10T05:45:29.662Z,7.13
2023-11-10T05:47:57.214Z,5.88
2023-11-10T05:50:24.932Z,4.90
2023-11-10T05:52:52.404Z,4.45
2023-11-10T05:55:19.820Z,3.83
2023-11-10T05:57:48.413Z,3.92
2023-11-10T06:00:17.813Z,3.72
2023-11-10T06:02:46.544Z,3.22
2023-11-10T06:05:15.720Z,3.20
2023-11-10T06:07:46.417Z,3.30
2023-11-10T06:10:14.531Z,3.35
2023-11-10T06:12:43.403Z,3.75
2023-11-10T06:15:13.931Z,2.75
2023-11-10T06:17:41.476Z,2.78
2023-11-10T06:20:11.047Z,3.00
2023-11-10T06:22:39.307Z,3.03
2023-11-10T06:25:07.585Z,3.00
2023-11-10T06:27:35.720Z,2.85
2023-11-10T06:30:11.241Z,4.22
2023-11-10T06:32:39.144Z,5.83
2023-11-10T06:35:07.166Z,5.18
2023-11-10T06:37:35.024Z,7.50
2023-11-10T06:40:04.966Z,6.50
2023-11-10T06:42:36.145Z,3.95
2023-11-10T06:45:04.950Z,3.70
2023-11-10T06:47:34.681Z,3.20
2023-11-10T06:50:05.074Z,3.28
2023-11-10T06:52:33.577Z,3.28
2023-11-10T06:55:04.737Z,3.63
2023-11-10T06:57:33.142Z,3.93
2023-11-10T07:00:00.778Z,3.80
2023-11-10T07:02:28.796Z,3.30
2023-11-10T07:04:56.825Z,3.25
2023-11-10T07:07:28.831Z,3.00
2023-11-10T07:10:01.968Z,2.73
2023-11-10T07:12:30.436Z,2.75
2023-11-10T07:14:58.591Z,3.53
2023-11-10T07:17:27.733Z,3.88
2023-11-10T07:19:56.829Z,3.35
2023-11-10T07:22:24.855Z,3.70
2023-11-10T07:24:52.610Z,3.60
2023-11-10T07:27:20.930Z,3.15
2023-11-10T07:29:48.493Z,2.45
2023-11-10T07:32:16.183Z,2.90
2023-11-10T07:34:46.740Z,2.87
2023-11-10T07:37:15.357Z,2.25
2023-11-10T07:39:43.043Z,2.75
2023-11-10T07:42:10.716Z,2.60
2023-11-10T07:44:48.807Z,2.67
2023-11-10T07:47:16.698Z,3.07
2023-11-10T07:49:45.102Z,3.00
2023-11-10T07:52:12.781Z,2.75
2023-11-10T07:54:40.249Z,2.88
2023-11-10T07:57:07.918Z,2.70
2023-11-10T07:59:39.410Z,3.07
2023-11-10T08:02:13.084Z,2.40
2023-11-10T08:04:59.994Z,3.10
2023-11-10T08:07:32.641Z,3.50
2023-11-10T08:10:06.471Z,3.10
2023-11-10T08:12:43.921Z,3.30
2023-11-10T08:15:14.154Z,3.58
2023-11-10T08:17:49.041Z,3.88
2023-11-10T08:20:22.166Z,2.88
2023-11-10T08:22:53.857Z,2.78
2023-11-10T08:25:25.611Z,3.33
2023-11-10T08:28:01.109Z,2.40
2023-11-10T08:30:29.960Z,2.78
2023-11-10T08:32:58.229Z,2.80
2023-11-10T08:35:29.005Z,2.10
2023-11-10T08:37:57.606Z,3.17
2023-11-10T08:40:25.875Z,2.65
2023-11-10T08:42:53.772Z,3.00
2023-11-10T08:45:24.143Z,2.60
2023-11-10T08:47:54.875Z,2.97
2023-11-10T08:50:26.115Z,2.80
2023-11-10T08:52:54.490Z,2.42
2023-11-10T08:55:25.001Z,2.60
2023-11-10T08:57:53.133Z,2.60
2023-11-10T09:00:21.575Z,2.90
2023-11-10T09:02:58.661Z,2.63
2023-11-10T09:05:27.159Z,2.85
2023-11-10T09:07:54.997Z,2.08
2023-11-10T09:10:34.074Z,2.58
2023-11-10T09:13:02.206Z,3.28
2023-11-10T09:15:37.968Z,3.53
2023-11-10T09:18:09.043Z,3.65
2023-11-10T09:20:39.366Z,3.78
2023-11-10T09:23:07.714Z,7.22
2023-11-10T09:25:36.565Z,6.75
2023-11-10T09:28:06.168Z,3.37
2023-11-10T09:30:35.504Z,3.22
2023-11-10T09:33:04.067Z,2.92
2023-11-10T09:35:34.360Z,3.65
2023-11-10T09:38:01.828Z,2.35
2023-11-10T09:40:29.862Z,2.23
2023-11-10T09:43:00.773Z,2.38
2023-11-10T09:45:28.500Z,2.50
2023-11-10T09:47:56.491Z,2.58
2023-11-10T09:50:24.313Z,2.83
2023-11-10T09:52:52.249Z,2.63
2023-11-10T09:55:21.442Z,2.25
2023-11-10T09:57:52.375Z,3.00
2023-11-10T10:00:22.190Z,2.63
2023-11-10T10:02:50.955Z,3.15
2023-11-10T10:05:20.224Z,2.50
2023-11-10T10:07:50.702Z,2.75
2023-11-10T10:10:19.222Z,3.13
2023-11-10T10:12:46.843Z,3.35
2023-11-10T10:15:14.519Z,2.85
2023-11-10T10:17:42.492Z,2.70
2023-11-10T10:20:15.575Z,2.80
2023-11-10T10:22:47.359Z,2.92
2023-11-10T10:25:16.503Z,2.90
2023-11-10T10:27:45.301Z,2.05
2023-11-10T10:30:14.096Z,2.73
2023-11-10T10:32:42.390Z,3.30
2023-11-10T10:35:10.355Z,2.78
2023-11-10T10:37:40.317Z,3.25
2023-11-10T10:40:12.763Z,3.50
2023-11-10T10:42:43.115Z,3.00
2023-11-10T10:45:14.411Z,2.50
2023-11-10T10:47:42.494Z,2.70
2023-11-10T10:50:11.743Z,2.35
2023-11-10T10:52:39.907Z,2.67
2023-11-10T10:55:09.183Z,2.90
2023-11-10T10:57:39.189Z,3.03
2023-11-10T11:00:07.502Z,2.15
2023-11-10T11:02:46.154Z,2.88
2023-11-10T11:05:19.976Z,2.72
2023-11-10T11:07:56.270Z,2.63
2023-11-10T11:10:51.453Z,2.65
2023-11-10T11:13:42.809Z,2.72
2023-11-10T11:16:37.177Z,2.78
2023-11-10T11:19:29.808Z,3.72
2023-11-10T11:21:58.071Z,3.03
2023-11-10T11:24:26.056Z,2.88
2023-11-10T11:27:00.915Z,2.60
2023-11-10T11:29:41.108Z,3.13
2023-11-10T11:32:13.975Z,3.15
2023-11-10T11:34:51.325Z,2.63
2023-11-10T11:37:19.054Z,3.45
2023-11-10T11:39:47.995Z,4.45
2023-11-10T11:42:17.762Z,5.00
2023-11-10T11:44:46.993Z,4.25
2023-11-10T11:47:14.474Z,3.70
2023-11-10T11:49:42.129Z,3.30
2023-11-10T11:52:11.270Z,3.10
2023-11-10T11:54:38.996Z,3.15
2023-11-10T11:57:06.574Z,3.20
2023-11-10T11:59:34.202Z,3.43
2023-11-10T12:02:04.484Z,3.30
2023-11-10T12:04:35.057Z,3.13
2023-11-10T12:07:03.843Z,2.63
2023-11-10T12:09:37.513Z,3.10
2023-11-10T12:12:05.956Z,3.13
2023-11-10T12:14:37.541Z,3.58
2023-11-10T12:17:11.713Z,3.80
2023-11-10T12:19:39.804Z,3.70
2023-11-10T12:22:07.574Z,3.92
2023-11-10T12:24:35.152Z,4.43
2023-11-10T12:27:02.528Z,5.40
2023-11-10T12:29:32.230Z,5.30
2023-11-10T12:32:02.902Z,5.10
2023-11-10T12:34:30.829Z,5.28
2023-11-10T12:37:03.650Z,4.93
2023-11-10T12:39:31.596Z,5.82
2023-11-10T12:42:02.141Z,7.50
2023-11-10T12:44:29.910Z,6.82
2023-11-10T12:46:58.693Z,5.88
2023-11-10T12:49:28.564Z,5.43
2023-11-10T12:52:00.409Z,5.57
2023-11-10T12:54:29.741Z,5.68
2023-11-10T12:57:00.686Z,6.03
2023-11-10T12:59:32.498Z,5.93
2023-11-10T13:02:00.949Z,5.90
2023-11-10T13:04:28.656Z,6.60
2023-11-10T13:06:57.239Z,5.85
2023-11-10T13:09:27.907Z,5.05
2023-11-10T13:11:55.453Z,5.63
2023-11-10T13:14:23.156Z,5.30
2023-11-10T13:16:50.748Z,6.28
2023-11-10T13:19:18.224Z,6.60
2023-11-10T13:21:46.149Z,5.82
2023-11-10T13:24:14.022Z,5.72
2023-11-10T13:26:42.616Z,6.00
2023-11-10T13:29:10.737Z,5.60
2023-11-10T13:31:38.462Z,4.85
2023-11-10T13:34:14.020Z,4.63
2023-11-10T13:36:42.489Z,4.22
2023-11-10T13:39:13.143Z,4.00
2023-11-10T13:41:46.468Z,3.72
2023-11-10T13:44:17.495Z,3.92
2023-11-10T13:46:45.115Z,4.25
2023-11-10T13:49:13.549Z,4.35
2023-11-10T13:51:41.200Z,4.13
2023-11-10T13:54:08.616Z,4.38
2023-11-10T13:56:36.387Z,4.05
2023-11-10T13:59:07.664Z,4.70
2023-11-10T14:01:35.369Z,5.05
2023-11-10T14:04:03.237Z,4.10
2023-11-10T14:06:31.728Z,4.57
2023-11-10T14:08:59.556Z,4.07
2023-11-10T14:11:27.359Z,3.92
2023-11-10T14:13:57.266Z,4.53
2023-11-10T14:16:25.021Z,4.37
2023-11-10T14:18:52.440Z,4.30
2023-11-10T14:21:23.389Z,4.30
2023-11-10T14:23:51.005Z,4.63
2023-11-10T14:26:18.533Z,4.65
2023-11-10T14:28:46.037Z,4.90
2023-11-10T14:31:14.781Z,4.70
2023-11-10T14:33:42.650Z,5.68
2023-11-10T14:36:12.797Z,6.75
2023-11-10T14:38:46.698Z,8.10
2023-11-10T14:41:18.255Z,8.53
2023-11-10T14:43:52.021Z,8.10
2023-11-10T14:46:20.072Z,7.22
2023-11-10T14:48:48.594Z,8.05
2023-11-10T14:51:31.841Z,7.82
2023-11-10T14:53:59.508Z,8.83
2023-11-10T14:56:26.972Z,8.30
2023-11-10T14:58:54.396Z,8.50
2023-11-10T15:01:22.652Z,8.20
2023-11-10T15:03:50.887Z,8.15
2023-11-10T15:06:21.316Z,8.80
2023-11-10T15:08:49.196Z,10.65
2023-11-10T15:11:16.893Z,10.10
2023-11-10T15:13:44.356Z,10.00
2023-11-10T15:16:12.076Z,9.85
2023-11-10T15:18:40.238Z,8.33
2023-11-10T15:21:07.881Z,8.50
2023-11-10T15:23:36.853Z,7.57
2023-11-10T15:26:04.576Z,8.45
2023-11-10T15:28:36.510Z,8.80
2023-11-10T15:31:07.551Z,8.77
2023-11-10T15:33:36.185Z,8.85
2023-11-10T15:36:04.610Z,9.27
2023-11-10T15:38:32.439Z,9.38
2023-11-10T15:41:02.674Z,9.95
2023-11-10T15:43:31.389Z,8.77
2023-11-10T15:46:02.138Z,10.15
2023-11-10T15:48:37.282Z,10.35
2023-11-10T15:51:11.339Z,10.23
2023-11-10T15:53:38.765Z,10.70
2023-11-10T15:56:06.250Z,11.23
2023-11-10T15:58:33.785Z,11.45
2023-11-10T16:01:01.311Z,12.82
2023-11-10T16:03:28.958Z,10.90
2023-11-10T16:05:56.419Z,11.63
2023-11-10T16:08:23.925Z,11.20
2023-11-10T16:10:51.292Z,11.57
2023-11-10T16:13:18.844Z,11.60
2023-11-10T16:15:46.312Z,12.57
2023-11-10T16:18:13.770Z,11.45
2023-11-10T16:20:41.187Z,12.47
2023-11-10T16:23:08.894Z,11.30
2023-11-10T16:25:36.270Z,12.30
2023-11-10T16:28:03.925Z,13.35
2023-11-10T16:30:32.038Z,12.55
2023-11-10T16:33:00.802Z,12.57
2023-11-10T16:35:28.880Z,12.82
2023-11-10T16:37:56.256Z,14.07
2023-11-10T16:40:23.741Z,14.38
2023-11-10T16:42:51.989Z,15.55
2023-11-10T16:45:19.419Z,21.03
2023-11-10T16:47:48.163Z,24.42
2023-11-10T16:50:16.009Z,27.10
2023-11-10T16:52:43.500Z,20.98
2023-11-10T16:55:11.224Z,19.55
2023-11-10T16:57:39.118Z,16.40
2023-11-10T17:00:14.539Z,15.73
2023-11-10T17:02:46.037Z,17.60
2023-11-10T17:05:16.877Z,19.65
2023-11-10T17:07:44.455Z,17.90
2023-11-10T17:10:13.373Z,17.37
2023-11-10T17:12:41.856Z,19.25
2023-11-10T17:15:11.776Z,17.98
2023-11-10T17:17:44.784Z,17.67
2023-11-10T17:20:13.294Z,17.48
2023-11-10T17:22:40.824Z,16.40
2023-11-10T17:25:09.234Z,17.30
2023-11-10T17:27:36.802Z,17.75
2023-11-10T17:30:04.541Z,18.45
2023-11-10T17:32:32.104Z,18.60
2023-11-10T17:34:59.488Z,27.43
2023-11-10T17:37:26.981Z,22.52
2023-11-10T17:39:54.671Z,19.50
2023-11-10T17:42:22.038Z,22.63
2023-11-10T17:44:50.096Z,20.85
2023-11-10T17:47:17.527Z,19.90
2023-11-10T17:49:44.938Z,24.08
2023-11-10T17:52:12.649Z,23.70
2023-11-10T17:54:40.087Z,24.42
2023-11-10T17:57:09.894Z,23.25
2023-11-10T17:59:37.333Z,22.97
2023-11-10T18:02:05.003Z,23.83
2023-11-10T18:04:33.602Z,22.65
2023-11-10T18:07:01.197Z,22.02
2023-11-10T18:09:28.466Z,21.98
2023-11-10T18:11:55.980Z,22.57
2023-11-10T18:14:23.399Z,23.10
2023-11-10T18:16:51.358Z,22.48
2023-11-10T18:19:18.769Z,23.10
2023-11-10T18:21:46.698Z,22.42
2023-11-10T18:24:14.699Z,22.07
2023-11-10T18:26:44.959Z,21.58
2023-11-10T18:29:12.362Z,22.40
2023-11-10T18:31:39.800Z,21.77
2023-11-10T18:34:08.014Z,20.50
2023-11-10T18:36:35.596Z,20.60
2023-11-10T18:39:03.630Z,19.45
2023-11-10T18:41:31.231Z,19.38
2023-11-10T18:43:58.710Z,20.08
2023-11-10T18:46:26.183Z,20.70
2023-11-10T18:48:53.644Z,22.00
2023-11-10T18:51:21.096Z,21.83
2023-11-10T18:53:48.414Z,24.98
2023-11-10T18:56:15.790Z,25.00
2023-11-10T18:58:43.228Z,26.15
2023-11-10T19:01:10.748Z,28.03
2023-11-10T19:03:39.098Z,29.30
2023-11-10T19:06:08.000Z,26.05
2023-11-10T19:08:37.422Z,25.63
2023-11-10T19:11:05.877Z,23.13
2023-11-10T19:13:35.966Z,22.57
2023-11-10T19:16:03.476Z,23.20
2023-11-10T19:18:30.849Z,38.78
2023-11-10T19:20:58.174Z,21.45
2023-11-10T19:23:25.475Z,19.88
2023-11-10T19:25:52.827Z,19.80
2023-11-10T19:28:25.158Z,20.40
2023-11-10T19:30:53.142Z,17.88
2023-11-10T19:33:20.632Z,16.77
2023-11-10T19:35:48.086Z,15.63
2023-11-10T19:38:15.385Z,15.13
2023-11-10T19:40:42.898Z,14.48
2023-11-10T19:43:10.974Z,13.40
2023-11-10T19:45:38.548Z,12.13
2023-11-10T19:48:05.883Z,13.77
2023-11-10T19:50:33.217Z,12.87
2023-11-10T19:53:02.438Z,14.10
2023-11-10T19:55:33.776Z,13.18
2023-11-10T19:58:01.139Z,13.20
2023-11-10T20:02:58.902Z,13.10
2023-11-10T20:05:26.361Z,13.18
2023-11-10T20:07:56.083Z,12.57
2023-11-10T20:10:24.973Z,11.85
2023-11-10T20:12:52.301Z,11.20
2023-11-10T20:15:19.742Z,11.67
2023-11-10T20:17:47.093Z,13.18
2023-11-10T20:20:15.829Z,11.70
2023-11-10T20:22:43.220Z,10.85
2023-11-10T20:25:10.728Z,13.45
2023-11-10T20:27:38.112Z,12.77
2023-11-10T20:30:06.341Z,13.00
2023-11-10T20:32:33.781Z,14.95
2023-11-10T20:35:01.296Z,13.25
2023-11-10T20:37:30.593Z,13.48
2023-11-10T20:39:59.642Z,14.90
2023-11-10T20:42:27.037Z,15.45
2023-11-10T20:44:54.497Z,14.82
2023-11-10T20:47:21.752Z,16.90
2023-11-10T20:49:49.079Z,18.42
2023-11-10T20:52:16.773Z,17.50
2023-11-10T20:54:45.151Z,19.05
2023-11-10T20:57:12.646Z,18.55
2023-11-10T20:59:40.098Z,19.17
2023-11-10T21:02:07.415Z,20.13
2023-11-10T21:04:34.872Z,17.00
2023-11-10T21:07:02.392Z,19.00
2023-11-10T21:09:29.661Z,19.10
2023-11-10T21:11:57.721Z,19.75
2023-11-10T21:14:25.074Z,19.05
2023-11-10T21:16:52.387Z,16.30
2023-11-10T21:19:19.805Z,17.42
2023-11-10T21:21:48.964Z,18.08
2023-11-10T21:24:16.578Z,17.27
2023-11-10T21:26:48.685Z,16.20
2023-11-10T21:29:16.235Z,16.70
2023-11-10T21:31:43.526Z,16.35
2023-11-10T21:34:10.983Z,17.45
2023-11-10T21:36:39.037Z,14.30
2023-11-10T21:39:12.296Z,13.77
2023-11-10T21:41:39.958Z,12.30
2023-11-10T21:44:10.945Z,12.45
2023-11-10T21:46:38.689Z,12.82
2023-11-10T21:49:06.246Z,11.85
2023-11-10T21:51:33.629Z,13.40
2023-11-10T21:54:02.999Z,11.47
2023-11-10T21:56:30.401Z,12.20
2023-11-10T21:58:57.878Z,13.38
2023-11-10T22:01:25.675Z,13.23
2023-11-10T22:03:53.295Z,12.40
2023-11-10T22:06:20.837Z,13.60
2023-11-10T22:08:48.357Z,11.90
2023-11-10T22:11:15.761Z,11.55
2023-11-10T22:13:43.472Z,12.02
2023-11-10T22:16:10.780Z,10.80
2023-11-10T22:18:38.888Z,12.70
2023-11-10T22:21:06.336Z,11.93
2023-11-10T22:23:33.794Z,12.73
2023-11-10T22:26:02.851Z,13.35
2023-11-10T22:28:30.716Z,12.35
2023-11-10T22:30:58.528Z,11.97
2023-11-10T22:33:26.037Z,11.82
2023-11-10T22:35:53.350Z,11.98
2023-11-10T22:38:20.856Z,11.98
2023-11-10T22:40:51.695Z,12.48
2023-11-10T22:43:19.454Z,12.60
2023-11-10T22:45:46.739Z,12.75
2023-11-10T22:48:14.133Z,11.45
2023-11-10T22:50:41.462Z,10.95
2023-11-10T22:53:09.126Z,11.32
2023-11-10T22:55:36.384Z,10.67
2023-11-10T22:58:03.957Z,11.63
2023-11-10T23:00:34.954Z,11.15
2023-11-10T23:03:05.517Z,10.73
2023-11-10T23:05:33.285Z,11.13
2023-11-10T23:08:00.625Z,11.60
2023-11-10T23:10:28.170Z,11.20
2023-11-10T23:12:56.738Z,12.23
2023-11-10T23:15:24.121Z,11.95
2023-11-10T23:17:53.949Z,11.82
2023-11-10T23:20:26.991Z,12.13
2023-11-10T23:23:00.581Z,12.30
2023-11-10T23:25:28.030Z,12.73
2023-11-10T23:27:55.305Z,11.60
2023-11-10T23:30:23.052Z,12.27
2023-11-10T23:32:52.531Z,11.77
2023-11-10T23:35:20.125Z,11.73
2023-11-10T23:37:49.314Z,11.48
2023-11-10T23:40:16.739Z,11.07
2023-11-10T23:42:44.276Z,11.85
2023-11-10T23:45:11.735Z,11.20
2023-11-10T23:47:39.182Z,11.35
2023-11-10T23:50:08.061Z,11.45
2023-11-10T23:52:36.082Z,11.35
2023-11-10T23:55:04.205Z,11.45
2023-11-10T23:57:32.252Z,11.90
2023-11-10T23:59:59.778Z,11.25
